createdAt,value
2019-02-02T00:00:03.364Z,18.77
2019-02-02T00:05:02.371Z,11.90
2019-02-02T00:10:02.819Z,10.97
2019-02-02T00:15:03.270Z,9.87
2019-02-02T00:20:02.601Z,9.70
2019-02-02T00:25:03.063Z,10.53
2019-02-02T00:30:02.478Z,11.47
2019-02-02T00:35:02.896Z,10.80
2019-02-02T00:40:03.295Z,11.90
2019-02-02T00:45:02.637Z,10.87
2019-02-02T00:50:02.988Z,15.67
2019-02-02T00:55:02.415Z,14.53
2019-02-02T01:00:02.844Z,14.33
2019-02-02T01:05:02.679Z,14.90
2019-02-02T01:10:03.226Z,14.80
2019-02-02T01:15:02.547Z,19.00
2019-02-02T01:20:02.990Z,14.67
2019-02-02T01:25:02.408Z,13.50
2019-02-02T01:30:02.849Z,14.80
2019-02-02T01:35:03.219Z,15.97
2019-02-02T01:40:02.737Z,14.00
2019-02-02T01:45:03.170Z,11.63
2019-02-02T01:50:02.561Z,11.43
2019-02-02T01:55:02.915Z,13.50
2019-02-02T02:00:03.259Z,13.43
2019-02-02T02:05:02.666Z,12.37
2019-02-02T02:10:03.208Z,10.77
2019-02-02T02:15:02.532Z,10.67
2019-02-02T02:20:02.871Z,12.17
2019-02-02T02:25:03.219Z,11.60
2019-02-02T02:30:02.641Z,15.33
2019-02-02T02:35:03.107Z,14.27
2019-02-02T02:40:02.604Z,11.67
2019-02-02T02:45:02.944Z,16.47
2019-02-02T02:50:03.287Z,12.73
2019-02-02T02:55:02.701Z,13.37
2019-02-02T03:00:03.048Z,16.97
2019-02-02T03:05:02.386Z,14.70
2019-02-02T03:10:02.853Z,15.23
2019-02-02T03:15:03.256Z,19.43
2019-02-02T03:20:02.661Z,17.60
2019-02-02T03:25:02.190Z,0
2019-02-02T03:30:02.634Z,21.03
2019-02-02T03:35:03.110Z,14.40
2019-02-02T03:40:02.639Z,14.13
2019-02-02T03:45:03.035Z,21.27
2019-02-02T03:50:02.455Z,14.57
2019-02-02T03:55:02.796Z,20.37
2019-02-02T04:00:03.139Z,20.63
2019-02-02T04:05:02.547Z,18.37
2019-02-02T04:10:03.003Z,25.53
2019-02-02T04:15:02.420Z,13.40
2019-02-02T04:20:02.761Z,16.97
2019-02-02T04:25:03.101Z,12.13
2019-02-02T04:30:02.516Z,16.63
2019-02-02T04:35:02.868Z,14.93
2019-02-02T04:40:03.309Z,24.27
2019-02-02T04:45:02.717Z,17.43
2019-02-02T04:50:03.099Z,20.30
2019-02-02T04:55:02.485Z,18.73
2019-02-02T05:00:02.933Z,20.20
2019-02-02T05:05:03.372Z,20.73
2019-02-02T05:10:02.784Z,16.13
2019-02-02T05:15:03.148Z,14.83
2019-02-02T05:20:02.548Z,21.47
2019-02-02T05:25:02.907Z,15.67
2019-02-02T05:30:03.029Z,17.70
2019-02-02T05:35:02.464Z,16.43
2019-02-02T05:40:02.891Z,22.63
2019-02-02T05:45:03.463Z,19.50
2019-02-02T05:50:02.813Z,19.17
2019-02-02T05:55:03.196Z,15.63
2019-02-02T06:00:02.612Z,17.63
2019-02-02T06:05:03.011Z,16.97
2019-02-02T06:10:02.413Z,19.10
2019-02-02T06:15:02.836Z,18.17
2019-02-02T06:20:03.305Z,24.80
2019-02-02T06:25:02.713Z,17.80
2019-02-02T06:30:04.489Z,21.33
2019-02-02T06:35:03.730Z,23.50
2019-02-02T06:40:02.388Z,0
2019-02-02T06:45:02.715Z,20.80
2019-02-02T06:50:03.196Z,27.53
2019-02-02T06:55:02.602Z,31.93
2019-02-02T07:00:03.012Z,24.07
2019-02-02T07:05:02.436Z,24.43
2019-02-02T07:10:02.843Z,21.37
2019-02-02T07:15:03.234Z,21.00
2019-02-02T07:20:02.572Z,24.00
2019-02-02T07:25:02.990Z,19.90
2019-02-02T07:30:05.057Z,23.80
2019-02-02T07:35:02.641Z,22.80
2019-02-02T07:40:03.084Z,28.23
2019-02-02T07:45:02.663Z,24.27
2019-02-02T07:50:03.053Z,18.83
2019-02-02T07:55:02.472Z,21.97
2019-02-02T08:00:02.885Z,25.23
2019-02-02T08:05:03.252Z,23.23
2019-02-02T08:10:02.667Z,26.87
2019-02-02T08:15:03.036Z,20.97
2019-02-02T08:20:02.433Z,26.80
2019-02-02T08:25:02.778Z,23.33
2019-02-02T08:30:03.109Z,27.87
2019-02-02T08:35:02.530Z,27.33
2019-02-02T08:40:02.977Z,21.87
2019-02-02T08:45:02.406Z,25.17
2019-02-02T08:50:02.857Z,32.50
2019-02-02T08:55:03.372Z,23.27
2019-02-02T09:00:02.802Z,30.43
2019-02-02T09:05:03.591Z,29.37
2019-02-02T09:10:02.197Z,0
2019-02-02T09:15:02.629Z,32.03
2019-02-02T09:20:03.085Z,35.37
2019-02-02T09:25:02.451Z,55.53
2019-02-02T09:30:02.903Z,140.93
2019-02-02T09:35:03.360Z,45.47
2019-02-02T09:40:02.862Z,32.90
2019-02-02T09:45:03.209Z,32.80
2019-02-02T09:50:02.623Z,54.37
2019-02-02T09:55:02.970Z,48.70
2019-02-02T10:00:02.386Z,42.50
2019-02-02T10:05:02.830Z,36.80
2019-02-02T10:10:03.342Z,48.53
2019-02-02T10:15:02.721Z,50.37
2019-02-02T10:20:03.069Z,39.43
2019-02-02T10:25:02.457Z,43.57
2019-02-02T10:30:02.792Z,26.07
2019-02-02T10:35:03.141Z,34.50
2019-02-02T10:40:02.555Z,52.77
2019-02-02T10:45:03.005Z,51.17
2019-02-02T10:50:02.421Z,56.73
2019-02-02T10:55:02.878Z,31.40
2019-02-02T11:00:03.320Z,43.90
2019-02-02T11:05:02.716Z,38.00
2019-02-02T11:10:03.396Z,41.63
2019-02-02T11:15:02.857Z,49.97
2019-02-02T11:20:03.318Z,57.37
2019-02-02T11:25:02.666Z,46.50
2019-02-02T11:30:03.265Z,57.53
2019-02-02T11:35:02.733Z,54.80
2019-02-02T11:40:03.135Z,79.43
2019-02-02T11:45:02.580Z,40.70
2019-02-02T11:50:03.029Z,45.23
2019-02-02T11:55:02.485Z,38.40
2019-02-02T12:00:02.892Z,36.27
2019-02-02T12:05:02.530Z,0
2019-02-02T12:10:02.954Z,52.63
2019-02-02T12:15:03.458Z,40.90
2019-02-02T12:20:02.808Z,59.97
2019-02-02T12:25:03.163Z,48.53
2019-02-02T12:30:02.572Z,40.20
2019-02-02T12:35:04.769Z,34.43
2019-02-02T12:40:03.347Z,35.83
2019-02-02T12:45:02.924Z,34.90
2019-02-02T12:50:03.330Z,31.30
2019-02-02T12:55:02.750Z,35.73
2019-02-02T13:00:03.112Z,53.37
2019-02-02T13:05:02.545Z,45.83
2019-02-02T13:10:02.952Z,42.73
2019-02-02T13:15:03.447Z,42.67
2019-02-02T13:20:02.807Z,37.83
2019-02-02T13:25:03.204Z,48.67
2019-02-02T13:30:02.543Z,30.07
2019-02-02T13:35:02.886Z,42.87
2019-02-02T13:40:03.759Z,43.67
2019-02-02T13:45:03.235Z,46.27
2019-02-02T13:50:02.588Z,38.57
2019-02-02T13:55:02.998Z,34.67
2019-02-02T14:00:02.404Z,49.67
2019-02-02T14:05:02.819Z,30.43
2019-02-02T14:10:03.260Z,35.80
2019-02-02T14:15:02.678Z,52.33
2019-02-02T14:20:03.009Z,64.37
2019-02-02T14:25:02.458Z,60.60
2019-02-02T14:30:02.804Z,44.43
2019-02-02T14:35:03.282Z,44.97
2019-02-02T14:40:01.892Z,0
2019-02-02T14:45:03.286Z,36.83
2019-02-02T14:50:02.712Z,40.33
2019-02-02T14:55:03.041Z,41.13
2019-02-02T15:00:02.459Z,47.67
2019-02-02T15:05:02.800Z,46.67
2019-02-02T15:10:03.426Z,29.90
2019-02-02T15:15:05.745Z,44.80
2019-02-02T15:20:03.315Z,49.43
2019-02-02T15:25:02.731Z,54.33
2019-02-02T15:30:03.182Z,32.87
2019-02-02T15:35:02.588Z,36.70
2019-02-02T15:40:03.038Z,35.77
2019-02-02T15:45:02.443Z,47.97
2019-02-02T15:50:02.795Z,40.50
2019-02-02T15:55:03.143Z,28.77
2019-02-02T16:00:02.548Z,31.43
2019-02-02T16:05:04.555Z,34.83
2019-02-02T16:10:03.144Z,26.07
2019-02-02T16:15:02.581Z,35.10
2019-02-02T16:20:03.038Z,22.27
2019-02-02T16:25:02.465Z,27.27
2019-02-02T16:30:02.853Z,32.33
2019-02-02T16:35:03.311Z,42.33
2019-02-02T16:40:02.720Z,44.07
2019-02-02T16:45:03.069Z,40.80
2019-02-02T16:50:02.482Z,47.23
2019-02-02T16:55:02.938Z,31.63
2019-02-02T17:00:03.392Z,38.60
2019-02-02T17:05:02.789Z,51.83
2019-02-02T17:10:03.233Z,51.43
2019-02-02T17:15:02.657Z,49.10
2019-02-02T17:20:03.096Z,39.87
2019-02-02T17:25:02.423Z,58.13
2019-02-02T17:30:02.895Z,30.40
2019-02-02T17:35:03.371Z,32.80
2019-02-02T17:40:02.817Z,46.90
2019-02-02T17:45:03.164Z,41.30
2019-02-02T17:50:02.585Z,57.73
2019-02-02T17:55:03.029Z,45.87
2019-02-02T18:00:02.445Z,67.63
2019-02-02T18:05:02.886Z,37.00
2019-02-02T18:10:03.332Z,39.87
2019-02-02T18:15:02.761Z,41.83
2019-02-02T18:20:03.198Z,60.30
2019-02-02T18:25:02.641Z,49.10
2019-02-02T18:30:03.062Z,52.63
2019-02-02T18:35:02.494Z,52.27
2019-02-02T18:40:02.926Z,42.40
2019-02-02T18:45:03.375Z,48.53
2019-02-02T18:50:02.774Z,36.10
2019-02-02T18:55:03.153Z,31.90
2019-02-02T19:00:02.551Z,41.30
2019-02-02T19:05:04.244Z,31.00
2019-02-02T19:10:02.425Z,0
2019-02-02T19:15:02.874Z,41.77
2019-02-02T19:20:03.294Z,33.30
2019-02-02T19:25:02.735Z,38.33
2019-02-02T19:30:03.164Z,49.60
2019-02-02T19:35:02.584Z,65.07
2019-02-02T19:40:03.024Z,43.53
2019-02-02T19:45:02.445Z,31.00
2019-02-02T19:50:02.870Z,38.30
2019-02-02T19:55:14.023Z,42.17
2019-02-02T20:00:03.191Z,38.57
2019-02-02T20:05:02.563Z,56.93
2019-02-02T20:10:03.009Z,40.93
2019-02-02T20:15:02.446Z,67.03
2019-02-02T20:20:02.904Z,69.20
2019-02-02T20:25:03.316Z,58.40
2019-02-02T20:30:02.741Z,52.80
2019-02-02T20:35:03.183Z,57.10
2019-02-02T20:40:02.618Z,82.47
2019-02-02T20:45:02.989Z,79.27
2019-02-02T20:50:02.367Z,60.83
2019-02-02T20:55:02.817Z,64.67
2019-02-02T21:00:03.269Z,73.50
2019-02-02T21:05:02.714Z,50.93
2019-02-02T21:10:03.211Z,53.50
2019-02-02T21:15:02.636Z,50.50
2019-02-02T21:20:03.111Z,62.17
2019-02-02T21:25:02.508Z,55.93
2019-02-02T21:30:02.928Z,73.87
2019-02-02T21:35:03.391Z,55.03
2019-02-02T21:40:02.789Z,61.87
2019-02-02T21:45:03.244Z,43.83
2019-02-02T21:50:02.654Z,43.50
2019-02-02T21:55:03.013Z,39.97
2019-02-02T22:00:02.420Z,41.07
2019-02-02T22:05:02.868Z,40.10
2019-02-02T22:10:03.331Z,41.60
2019-02-02T22:15:02.735Z,35.80
2019-02-02T22:20:02.457Z,47.70
2019-02-02T22:25:02.901Z,39.47
2019-02-02T22:30:03.359Z,37.87
2019-02-02T22:35:02.787Z,40.00
2019-02-02T22:40:02.503Z,0
2019-02-02T22:45:03.144Z,37.73
2019-02-02T22:50:02.538Z,37.37
2019-02-02T22:55:02.896Z,33.33
2019-02-02T23:00:03.261Z,41.93
2019-02-02T23:05:02.644Z,31.33
2019-02-02T23:10:01.672Z,0
2019-02-02T23:15:03.031Z,36.73
2019-02-02T23:20:02.448Z,34.37
2019-02-02T23:25:02.889Z,34.93
2019-02-02T23:30:02.528Z,0
2019-02-02T23:35:03.261Z,55.07
2019-02-02T23:40:02.670Z,42.07
2019-02-02T23:45:03.027Z,34.63
2019-02-02T23:50:02.449Z,36.80
2019-02-02T23:55:02.886Z,41.03
